createdAt,value
2023-01-21T00:01:29.744Z,101049.92
2023-01-21T00:04:00.326Z,101042.91
2023-01-21T00:06:32.634Z,101050.92
2023-01-21T00:09:03.217Z,101050.75
2023-01-21T00:11:34.632Z,101059.55
2023-01-21T00:14:05.327Z,101060.40
2023-01-21T00:16:37.056Z,101059.75
2023-01-21T00:19:07.642Z,101063.74
2023-01-21T00:21:38.174Z,101067.98
2023-01-21T00:24:08.945Z,101053.23
2023-01-21T00:26:39.766Z,101056.59
2023-01-21T00:29:12.519Z,101061.59
2023-01-21T00:31:43.286Z,101070.00
2023-01-21T00:34:13.941Z,101067.96
2023-01-21T00:36:44.819Z,101075.55
2023-01-21T00:39:15.821Z,101062.89
2023-01-21T00:41:46.425Z,101066.56
2023-01-21T00:44:17.959Z,101064.96
2023-01-21T00:46:48.569Z,101062.75
2023-01-21T00:49:19.156Z,101072.97
2023-01-21T00:51:49.810Z,101065.39
2023-01-21T00:54:21.700Z,101065.36
2023-01-21T00:56:52.251Z,101072.16
2023-01-21T00:59:22.975Z,101062.30
2023-01-21T01:01:53.610Z,101075.46
2023-01-21T01:04:25.289Z,101079.95
2023-01-21T01:06:55.948Z,101087.70
2023-01-21T01:09:27.578Z,101082.62
2023-01-21T01:11:58.145Z,101081.72
2023-01-21T01:14:28.784Z,101084.78
2023-01-21T01:16:59.406Z,101084.60
2023-01-21T01:19:30.213Z,101089.22
2023-01-21T01:22:00.777Z,101086.77
2023-01-21T01:24:31.865Z,101093.72
2023-01-21T01:27:02.451Z,101095.97
2023-01-21T01:29:34.140Z,101100.49
2023-01-21T01:32:04.840Z,101105.70
2023-01-21T01:34:35.407Z,101102.42
2023-01-21T01:37:06.049Z,101097.98
2023-01-21T01:39:36.617Z,101094.61
2023-01-21T01:42:07.156Z,101086.72
2023-01-21T01:45:01.271Z,101089.69
2023-01-21T01:47:34.706Z,101102.44
2023-01-21T01:50:08.428Z,101107.23
2023-01-21T01:52:40.032Z,101104.23
2023-01-21T01:55:12.666Z,101103.03
2023-01-21T01:57:46.219Z,101095.16
2023-01-21T02:00:17.992Z,101102.34
2023-01-21T02:02:50.732Z,101090.02
2023-01-21T02:05:21.851Z,101093.77
2023-01-21T02:07:52.541Z,101085.45
2023-01-21T02:10:23.208Z,101079.34
2023-01-21T02:12:57.083Z,101081.41
2023-01-21T02:15:30.748Z,101074.56
2023-01-21T02:18:04.185Z,101066.69
2023-01-21T02:21:06.536Z,101062.61
2023-01-21T02:23:57.702Z,101066.05
2023-01-21T02:26:47.395Z,101073.81
2023-01-21T02:29:29.695Z,101073.00
2023-01-21T02:32:17.849Z,101070.85
2023-01-21T02:35:13.503Z,101059.34
2023-01-21T02:38:09.522Z,101060.53
2023-01-21T02:41:00.383Z,101066.11
2023-01-21T02:43:53.317Z,101057.08
2023-01-21T02:46:29.541Z,101060.48
2023-01-21T02:49:06.046Z,101058.59
2023-01-21T02:51:36.925Z,101051.02
2023-01-21T02:54:16.588Z,101054.20
2023-01-21T02:56:47.408Z,101064.52
2023-01-21T02:59:18.176Z,101063.70
2023-01-21T03:01:57.578Z,101061.11
2023-01-21T03:04:55.764Z,101051.33
2023-01-21T03:07:31.872Z,101054.42
2023-01-21T03:10:20.200Z,101042.94
2023-01-21T03:13:19.973Z,101048.30
2023-01-21T03:16:11.015Z,101035.02
2023-01-21T03:18:47.592Z,101032.17
2023-01-21T03:21:23.963Z,101037.64
2023-01-21T03:23:56.674Z,101042.00
2023-01-21T03:26:36.128Z,101045.27
2023-01-21T03:29:09.650Z,101043.87
2023-01-21T03:31:43.341Z,101046.18
2023-01-21T03:34:17.282Z,101038.79
2023-01-21T03:36:59.951Z,101043.80
2023-01-21T03:39:34.631Z,101041.91
2023-01-21T03:42:05.688Z,101019.17
2023-01-21T03:44:36.691Z,101029.32
2023-01-21T03:47:25.521Z,101035.08
2023-01-21T03:49:59.011Z,101032.41
2023-01-21T03:52:30.191Z,101033.64
2023-01-21T03:55:00.855Z,101036.66
2023-01-21T03:57:32.581Z,101036.30
2023-01-21T04:00:03.455Z,101025.16
2023-01-21T04:02:34.342Z,101028.28
2023-01-21T04:05:05.577Z,101040.28
2023-01-21T04:07:36.097Z,101043.84
2023-01-21T04:10:07.217Z,101039.09
2023-01-21T04:12:38.768Z,101030.77
2023-01-21T04:15:10.324Z,101017.44
2023-01-21T04:17:40.793Z,101031.27
2023-01-21T04:20:11.980Z,101022.58
2023-01-21T04:22:42.420Z,101033.85
2023-01-21T04:25:12.860Z,101043.36
2023-01-21T04:27:44.927Z,101030.14
2023-01-21T04:30:16.292Z,101040.96
2023-01-21T04:32:46.898Z,101024.30
2023-01-21T04:35:18.497Z,101010.13
2023-01-21T04:37:50.055Z,101010.56
2023-01-21T04:40:20.803Z,101001.40
2023-01-21T04:42:51.594Z,101004.31
2023-01-21T04:45:23.402Z,101008.02
2023-01-21T04:47:53.877Z,100980.36
2023-01-21T04:50:24.361Z,100995.77
2023-01-21T04:52:54.891Z,101006.50
2023-01-21T04:55:26.493Z,101010.44
2023-01-21T04:57:57.247Z,101001.66
2023-01-21T05:00:28.692Z,101003.27
2023-01-21T05:02:59.146Z,100998.11
2023-01-21T05:05:29.626Z,101010.94
2023-01-21T05:08:00.526Z,100996.09
2023-01-21T05:10:31.093Z,101005.53
2023-01-21T05:13:01.548Z,101006.39
2023-01-21T05:15:32.483Z,101006.86
2023-01-21T05:18:03.105Z,101009.41
2023-01-21T05:20:33.547Z,100997.11
2023-01-21T05:23:04.573Z,100983.48
2023-01-21T05:25:37.695Z,101002.61
2023-01-21T05:28:08.123Z,101000.11
2023-01-21T05:30:40.694Z,101007.56
2023-01-21T05:33:10.976Z,101002.64
2023-01-21T05:35:43.163Z,100997.20
2023-01-21T05:38:14.766Z,101008.77
2023-01-21T05:40:45.217Z,101001.47
2023-01-21T05:43:15.749Z,100998.56
2023-01-21T05:45:46.264Z,101006.97
2023-01-21T05:48:17.273Z,101001.31
2023-01-21T05:50:50.390Z,100993.95
2023-01-21T05:53:20.862Z,100999.89
2023-01-21T05:55:58.067Z,100999.63
2023-01-21T05:58:28.812Z,100996.74
2023-01-21T06:00:59.670Z,100994.70
2023-01-21T06:03:30.376Z,100984.64
2023-01-21T06:06:00.833Z,100993.23
2023-01-21T06:08:31.394Z,101006.23
2023-01-21T06:11:02.020Z,100994.58
2023-01-21T06:13:35.471Z,101000.50
2023-01-21T06:16:06.336Z,101001.50
2023-01-21T06:18:36.851Z,100997.82
2023-01-21T06:21:07.629Z,101003.80
2023-01-21T06:23:38.689Z,100988.58
2023-01-21T06:26:09.345Z,101000.04
2023-01-21T06:28:39.793Z,100998.14
2023-01-21T06:31:10.419Z,100996.48
2023-01-21T06:33:40.993Z,100998.77
2023-01-21T06:36:11.559Z,100990.45
2023-01-21T06:38:42.125Z,100983.89
2023-01-21T06:41:12.540Z,100982.59
2023-01-21T06:43:42.969Z,100952.81
2023-01-21T06:46:14.010Z,100978.34
2023-01-21T06:48:44.576Z,100956.53
2023-01-21T06:51:15.251Z,100957.77
2023-01-21T06:53:45.918Z,100957.49
2023-01-21T06:56:16.323Z,100954.23
2023-01-21T06:58:46.807Z,100954.92
2023-01-21T07:01:17.396Z,100940.89
2023-01-21T07:03:47.862Z,100954.34
2023-01-21T07:06:19.733Z,100965.36
2023-01-21T07:08:51.539Z,100955.70
2023-01-21T07:11:21.960Z,100935.16
2023-01-21T07:13:53.650Z,100946.14
2023-01-21T07:16:24.260Z,100943.71
2023-01-21T07:18:54.781Z,100926.28
2023-01-21T07:21:26.935Z,100936.95
2023-01-21T07:23:57.686Z,100939.54
2023-01-21T07:26:28.211Z,100912.31
2023-01-21T07:29:01.669Z,100920.20
2023-01-21T07:31:31.138Z,100925.05
2023-01-21T07:34:01.800Z,100935.11
2023-01-21T07:36:32.349Z,100908.27
2023-01-21T07:39:07.101Z,100908.88
2023-01-21T07:41:37.582Z,100923.45
2023-01-21T07:44:08.137Z,100901.66
2023-01-21T07:46:38.680Z,100898.48
2023-01-21T07:49:09.861Z,100903.44
2023-01-21T07:51:40.467Z,100901.45
2023-01-21T07:54:12.299Z,100891.48
2023-01-21T07:56:42.729Z,100891.89
2023-01-21T07:59:14.060Z,100905.33
2023-01-21T08:01:44.581Z,100884.27
2023-01-21T08:04:15.331Z,100887.38
2023-01-21T08:06:45.781Z,100881.45
2023-01-21T08:09:16.373Z,100869.22
2023-01-21T08:11:46.857Z,100887.52
2023-01-21T08:14:17.391Z,100869.33
2023-01-21T08:16:47.837Z,100880.31
2023-01-21T08:19:19.533Z,100854.46
2023-01-21T08:21:52.727Z,100870.58
2023-01-21T08:24:23.619Z,100857.87
2023-01-21T08:26:54.236Z,100859.98
2023-01-21T08:29:28.139Z,100865.39
2023-01-21T08:32:02.184Z,100848.02
2023-01-21T08:34:32.912Z,100853.75
2023-01-21T08:37:03.332Z,100846.31
2023-01-21T08:39:33.805Z,100845.62
2023-01-21T08:42:04.340Z,100861.05
2023-01-21T08:44:35.786Z,100852.48
2023-01-21T08:47:06.241Z,100854.70
2023-01-21T08:49:36.718Z,100833.07
2023-01-21T08:52:07.492Z,100856.83
2023-01-21T08:54:37.972Z,100829.84
2023-01-21T08:57:08.419Z,100840.38
2023-01-21T08:59:38.900Z,100827.86
2023-01-21T09:02:10.850Z,100832.97
2023-01-21T09:04:41.433Z,100843.39
2023-01-21T09:07:13.361Z,100818.23
2023-01-21T09:09:43.919Z,100839.24
2023-01-21T09:12:14.373Z,100834.42
2023-01-21T09:14:45.958Z,100831.53
2023-01-21T09:17:16.375Z,100847.50
2023-01-21T09:19:46.945Z,100836.00
2023-01-21T09:22:18.182Z,100838.16
2023-01-21T09:24:48.666Z,100858.73
2023-01-21T09:27:19.140Z,100868.31
2023-01-21T09:29:49.708Z,100871.72
2023-01-21T09:32:20.122Z,100871.41
2023-01-21T09:34:50.597Z,100908.75
2023-01-21T09:37:21.075Z,100910.91
2023-01-21T09:39:51.551Z,100910.55
2023-01-21T09:42:25.202Z,100903.64
2023-01-21T09:44:58.755Z,100893.64
2023-01-21T09:47:41.462Z,100894.16
2023-01-21T09:50:19.170Z,100877.98
2023-01-21T09:52:52.286Z,100898.98
2023-01-21T09:55:25.631Z,100891.45
2023-01-21T09:58:10.883Z,100888.25
2023-01-21T10:01:02.192Z,100891.94
2023-01-21T10:03:44.244Z,100882.48
2023-01-21T10:06:33.664Z,100879.69
2023-01-21T10:09:07.009Z,100887.13
2023-01-21T10:11:52.076Z,100885.03
2023-01-21T10:14:40.383Z,100876.22
2023-01-21T10:17:19.467Z,100873.84
2023-01-21T10:19:55.281Z,100891.79
2023-01-21T10:22:28.659Z,100880.95
2023-01-21T10:25:24.728Z,100889.62
2023-01-21T10:27:59.431Z,100884.39
2023-01-21T10:30:35.484Z,100876.25
2023-01-21T10:33:09.052Z,100867.40
2023-01-21T10:35:48.218Z,100878.14
2023-01-21T10:38:24.546Z,100874.86
2023-01-21T10:41:00.848Z,100878.33
2023-01-21T10:43:50.483Z,100870.13
2023-01-21T10:46:29.660Z,100857.53
2023-01-21T10:49:21.407Z,100874.45
2023-01-21T10:51:54.967Z,100852.70
2023-01-21T10:54:34.217Z,100853.14
2023-01-21T10:57:34.725Z,100853.82
2023-01-21T11:00:08.339Z,100849.61
2023-01-21T11:02:38.913Z,100854.14
2023-01-21T11:05:12.500Z,100847.14
2023-01-21T11:07:43.866Z,100861.58
2023-01-21T11:10:18.446Z,100851.88
2023-01-21T11:12:49.964Z,100864.26
2023-01-21T11:15:22.640Z,100854.63
2023-01-21T11:17:56.264Z,100863.03
2023-01-21T11:20:44.329Z,100860.08
2023-01-21T11:23:32.278Z,100860.74
2023-01-21T11:26:10.195Z,100836.73
2023-01-21T11:28:39.788Z,100842.59
2023-01-21T11:31:19.226Z,100834.45
2023-01-21T11:33:50.106Z,100840.96
2023-01-21T11:36:23.414Z,100825.37
2023-01-21T11:39:14.558Z,100837.45
2023-01-21T11:41:47.937Z,100843.17
2023-01-21T11:44:20.580Z,100846.20
2023-01-21T11:46:51.751Z,100836.06
2023-01-21T11:49:34.060Z,100850.56
2023-01-21T11:52:16.327Z,100851.45
2023-01-21T11:54:47.387Z,100849.80
2023-01-21T11:57:24.453Z,100862.10
2023-01-21T11:59:57.864Z,100860.69
2023-01-21T12:02:30.949Z,100859.84
2023-01-21T12:05:09.009Z,100866.37
2023-01-21T12:07:43.885Z,100851.47
2023-01-21T12:10:19.828Z,100861.00
2023-01-21T12:13:05.935Z,100847.77
2023-01-21T12:15:46.765Z,100864.66
2023-01-21T12:18:36.427Z,100857.85
2023-01-21T12:21:37.075Z,100856.39
2023-01-21T12:24:10.443Z,100864.55
2023-01-21T12:26:45.698Z,100850.19
2023-01-21T12:29:35.801Z,100866.83
2023-01-21T12:32:27.294Z,100864.03
2023-01-21T12:35:07.323Z,100850.44
2023-01-21T12:37:49.552Z,100864.34
2023-01-21T12:40:24.092Z,100863.09
2023-01-21T12:42:57.480Z,100858.33
2023-01-21T12:45:30.870Z,100857.39
2023-01-21T12:48:04.270Z,100862.84
2023-01-21T12:50:46.386Z,100876.09
2023-01-21T12:53:22.318Z,100847.14
2023-01-21T12:56:27.451Z,100852.77
2023-01-21T12:59:03.461Z,100863.63
2023-01-21T13:01:56.527Z,100871.28
2023-01-21T13:04:48.381Z,100869.07
2023-01-21T13:07:43.540Z,100874.23
2023-01-21T13:10:32.049Z,100884.83
2023-01-21T13:13:26.701Z,100782.56
2023-01-21T13:16:00.283Z,100882.62
2023-01-21T13:18:37.397Z,100879.31
2023-01-21T13:21:19.620Z,100873.98
2023-01-21T13:23:57.455Z,100886.61
2023-01-21T13:26:51.857Z,100896.49
2023-01-21T13:29:40.189Z,100888.11
2023-01-21T13:32:25.227Z,100896.09
2023-01-21T13:35:18.677Z,100904.75
2023-01-21T13:38:01.396Z,100902.58
2023-01-21T13:40:39.451Z,100911.16
2023-01-21T13:43:32.541Z,100907.73
2023-01-21T13:46:08.953Z,100901.59
2023-01-21T13:48:43.938Z,100917.16
2023-01-21T13:51:22.589Z,100919.33
2023-01-21T13:54:16.393Z,100921.94
2023-01-21T13:57:06.085Z,100930.60
2023-01-21T13:59:54.311Z,100920.08
2023-01-21T14:02:30.537Z,100935.46
2023-01-21T14:05:12.343Z,100919.84
2023-01-21T14:07:46.266Z,100932.63
2023-01-21T14:10:20.832Z,100934.92
2023-01-21T14:13:09.079Z,100933.14
2023-01-21T14:15:57.182Z,100940.43
2023-01-21T14:19:02.128Z,100928.47
2023-01-21T14:21:53.656Z,100938.00
2023-01-21T14:24:32.855Z,100938.72
2023-01-21T14:27:06.228Z,100950.33
2023-01-21T14:29:54.779Z,100948.58
2023-01-21T14:32:55.360Z,100989.84
2023-01-21T14:35:34.438Z,100945.50
2023-01-21T14:38:22.947Z,100950.31
2023-01-21T14:41:06.497Z,100964.08
2023-01-21T14:43:40.715Z,100958.92
2023-01-21T14:46:29.226Z,100958.60
2023-01-21T14:49:09.276Z,100970.75
2023-01-21T14:51:46.508Z,100982.11
2023-01-21T14:54:28.275Z,100982.83
2023-01-21T14:57:17.412Z,100986.23
2023-01-21T14:59:44.806Z,100993.50
2023-01-21T15:02:24.455Z,100995.25
2023-01-21T15:05:13.306Z,101001.14
2023-01-21T15:07:49.210Z,101002.86
2023-01-21T15:10:24.525Z,101007.48
2023-01-21T15:12:59.318Z,101008.98
2023-01-21T15:15:40.057Z,101005.52
2023-01-21T15:18:28.455Z,101012.70
2023-01-21T15:21:00.707Z,101025.30
2023-01-21T15:23:35.413Z,101031.45
2023-01-21T15:26:13.154Z,101031.39
2023-01-21T15:29:00.186Z,101035.83
2023-01-21T15:38:13.630Z,101049.81
2023-01-21T15:41:04.109Z,101050.92
2023-01-21T15:43:49.418Z,101055.48
2023-01-21T15:46:29.006Z,101051.79
2023-01-21T15:49:02.508Z,101057.14
2023-01-21T15:51:51.282Z,101053.14
2023-01-21T15:54:35.665Z,101063.58
2023-01-21T15:57:21.973Z,101069.85
2023-01-21T16:00:16.496Z,101066.63
2023-01-21T16:02:56.026Z,101068.44
2023-01-21T16:05:44.591Z,101080.30
2023-01-21T16:08:32.549Z,101074.89
2023-01-21T16:11:28.922Z,101084.09
2023-01-21T16:14:04.971Z,101089.95
2023-01-21T16:16:54.454Z,101100.47
2023-01-21T16:19:28.166Z,101095.98
2023-01-21T16:22:01.667Z,101105.50
2023-01-21T16:24:37.470Z,101099.05
2023-01-21T16:27:22.964Z,101099.05
2023-01-21T16:30:01.191Z,101116.53
2023-01-21T16:32:32.743Z,101119.16
2023-01-21T16:35:03.373Z,101125.64
2023-01-21T16:37:34.664Z,101125.99
2023-01-21T16:40:15.303Z,101124.25
2023-01-21T16:42:45.906Z,101133.02
2023-01-21T16:45:23.194Z,101132.46
2023-01-21T16:47:58.962Z,101141.63
2023-01-21T16:50:33.413Z,101140.45
2023-01-21T16:53:07.840Z,101151.10
2023-01-21T16:55:41.187Z,101143.31
2023-01-21T16:58:17.161Z,101148.19
2023-01-21T17:01:05.962Z,101151.35
2023-01-21T17:03:35.305Z,101155.69
2023-01-21T17:06:23.931Z,101159.56
2023-01-21T17:09:05.230Z,101159.48
2023-01-21T17:11:39.677Z,101167.82
2023-01-21T17:14:11.529Z,101167.34
2023-01-21T17:16:43.704Z,101179.23
2023-01-21T17:19:26.247Z,101177.78
2023-01-21T17:22:00.177Z,101175.69
2023-01-21T17:24:41.018Z,101183.44
2023-01-21T17:27:14.452Z,101185.55
2023-01-21T17:29:45.551Z,101196.20
2023-01-21T17:32:34.666Z,101196.64
2023-01-21T17:35:17.593Z,101204.52
2023-01-21T17:37:57.895Z,101213.41
2023-01-21T17:40:49.203Z,101208.30
2023-01-21T17:43:26.623Z,101209.56
2023-01-21T17:45:59.067Z,101233.49
2023-01-21T17:48:36.205Z,101232.97
2023-01-21T17:51:09.681Z,101243.78
2023-01-21T17:53:46.401Z,101239.69
2023-01-21T17:56:21.648Z,101258.42
2023-01-21T17:58:53.234Z,101267.14
2023-01-21T18:01:25.093Z,101269.66
2023-01-21T18:03:55.611Z,101267.80
2023-01-21T18:06:30.189Z,101273.02
2023-01-21T18:09:01.208Z,101284.63
2023-01-21T18:11:31.763Z,101279.30
2023-01-21T18:14:02.235Z,101271.95
2023-01-21T18:16:32.888Z,101283.77
2023-01-21T18:19:03.407Z,101283.73
2023-01-21T18:21:34.003Z,101286.91
2023-01-21T18:24:04.635Z,101302.92
2023-01-21T18:26:38.446Z,101296.58
2023-01-21T18:29:12.023Z,101297.55
2023-01-21T18:31:42.600Z,101311.05
2023-01-21T18:34:13.572Z,101305.85
2023-01-21T18:36:44.223Z,101304.55
2023-01-21T18:39:21.633Z,101313.06
2023-01-21T18:41:52.115Z,101313.95
2023-01-21T18:44:22.729Z,101315.48
2023-01-21T18:46:53.608Z,101311.56
2023-01-21T18:49:25.181Z,101323.55
2023-01-21T18:51:55.799Z,101316.08
2023-01-21T18:54:27.317Z,101319.48
2023-01-21T18:56:57.847Z,101322.54
2023-01-21T18:59:28.943Z,101309.09
2023-01-21T19:01:59.428Z,101326.30
2023-01-21T19:04:29.958Z,101329.64
2023-01-21T19:07:00.455Z,101327.00
2023-01-21T19:09:32.517Z,101336.44
2023-01-21T19:12:02.979Z,101334.08
2023-01-21T19:14:33.597Z,101336.23
2023-01-21T19:17:06.876Z,101330.16
2023-01-21T19:19:40.398Z,101324.33
2023-01-21T19:22:15.956Z,101330.91
2023-01-21T19:24:47.218Z,101337.85
2023-01-21T19:27:29.562Z,101335.08
2023-01-21T19:30:00.043Z,101333.06
2023-01-21T19:32:31.520Z,101345.23
2023-01-21T19:35:02.025Z,101344.50
2023-01-21T19:37:32.511Z,101351.94
2023-01-21T19:40:04.937Z,101355.34
2023-01-21T19:42:35.441Z,101359.11
2023-01-21T19:45:06.293Z,101367.87
2023-01-21T19:47:38.433Z,101369.80
2023-01-21T19:50:14.753Z,101381.59
2023-01-21T19:52:48.661Z,101382.53
2023-01-21T19:55:23.587Z,101385.16
2023-01-21T19:58:02.916Z,101388.32
2023-01-21T20:00:36.607Z,101405.84
2023-01-21T20:03:31.957Z,101395.17
2023-01-21T20:06:05.744Z,101393.84
2023-01-21T20:08:36.667Z,101403.58
2023-01-21T20:11:07.258Z,101412.19
2023-01-21T20:13:40.476Z,101409.34
2023-01-21T20:16:21.254Z,101410.22
2023-01-21T20:18:52.422Z,101404.92
2023-01-21T20:21:23.514Z,101408.21
2023-01-21T20:23:54.037Z,101419.84
2023-01-21T20:26:27.550Z,101422.18
2023-01-21T20:29:00.799Z,101431.28
2023-01-21T20:31:32.733Z,101428.41
2023-01-21T20:34:03.411Z,101434.09
2023-01-21T20:36:34.089Z,101437.75
2023-01-21T20:39:04.896Z,101440.71
2023-01-21T20:41:37.104Z,101445.62
2023-01-21T20:44:11.714Z,101447.68
2023-01-21T20:46:43.624Z,101443.07
2023-01-21T20:49:14.087Z,101453.87
2023-01-21T20:51:44.595Z,101457.52
2023-01-21T20:54:15.092Z,101460.90
2023-01-21T20:56:46.030Z,101463.64
2023-01-21T20:59:17.129Z,101461.25
2023-01-21T21:01:50.908Z,101474.21
2023-01-21T21:04:21.548Z,101468.69
2023-01-21T21:06:52.265Z,101473.66
2023-01-21T21:09:24.170Z,101483.55
2023-01-21T21:11:54.816Z,101489.30
2023-01-21T21:14:25.380Z,101486.61
2023-01-21T21:16:57.419Z,101481.78
2023-01-21T21:19:27.909Z,101495.77
2023-01-21T21:21:59.567Z,101497.55
2023-01-21T21:24:30.108Z,101491.37
2023-01-21T21:27:01.377Z,101492.45
2023-01-21T21:29:32.038Z,101488.30
2023-01-21T21:32:03.221Z,101499.38
2023-01-21T21:34:34.560Z,101505.94
2023-01-21T21:37:05.943Z,101511.23
2023-01-21T21:39:36.527Z,101514.32
2023-01-21T21:42:25.016Z,101505.36
2023-01-21T21:44:55.689Z,101502.15
2023-01-21T21:47:44.025Z,101506.95
2023-01-21T21:50:14.800Z,101509.63
2023-01-21T21:52:46.363Z,101514.38
2023-01-21T21:55:18.858Z,101518.68
2023-01-21T21:57:49.776Z,101519.66
2023-01-21T22:00:23.143Z,101523.25
2023-01-21T22:02:54.257Z,101516.38
2023-01-21T22:05:24.949Z,101528.56
2023-01-21T22:07:57.541Z,101531.70
2023-01-21T22:10:28.260Z,101532.67
2023-01-21T22:13:00.135Z,101538.46
2023-01-21T22:15:32.415Z,101537.29
2023-01-21T22:18:03.478Z,101548.90
2023-01-21T22:20:36.611Z,101545.77
2023-01-21T22:23:10.623Z,101553.13
2023-01-21T22:25:42.377Z,101551.45
2023-01-21T22:28:14.923Z,101559.30
2023-01-21T22:30:47.351Z,101566.55
2023-01-21T22:33:21.907Z,101558.06
2023-01-21T22:35:53.632Z,101556.83
2023-01-21T22:38:25.734Z,101571.39
2023-01-21T22:40:56.977Z,101562.08
2023-01-21T22:43:27.878Z,101568.32
2023-01-21T22:46:00.196Z,101570.47
2023-01-21T22:48:32.911Z,101578.08
2023-01-21T22:51:03.594Z,101575.92
2023-01-21T22:53:35.523Z,101576.70
2023-01-21T22:56:07.332Z,101585.39
2023-01-21T22:58:38.146Z,101584.55
2023-01-21T23:01:09.524Z,101588.27
2023-01-21T23:03:40.050Z,101589.22
2023-01-21T23:06:11.105Z,101600.13
2023-01-21T23:08:41.643Z,101594.77
2023-01-21T23:11:13.828Z,101601.80
2023-01-21T23:13:46.106Z,101608.28
2023-01-21T23:16:19.668Z,101598.20
2023-01-21T23:18:51.085Z,101604.78
2023-01-21T23:21:25.646Z,101618.50
2023-01-21T23:24:04.123Z,101605.25
2023-01-21T23:26:35.912Z,101610.55
2023-01-21T23:29:13.398Z,101616.09
2023-01-21T23:31:48.875Z,101619.77
2023-01-21T23:34:23.647Z,101622.70
2023-01-21T23:36:59.460Z,101624.70
2023-01-21T23:39:31.603Z,101627.11
2023-01-21T23:42:02.159Z,101627.09
2023-01-21T23:44:33.399Z,101631.38
2023-01-21T23:47:03.900Z,101631.41
2023-01-21T23:49:34.699Z,101631.22
2023-01-21T23:52:06.885Z,101629.48
2023-01-21T23:54:37.526Z,101631.95
2023-01-21T23:57:08.269Z,101624.33
2023-01-21T23:59:39.370Z,101629.77
